createdAt,value
2023-05-09T00:01:04.254Z,67.26563
2023-05-09T00:03:04.113Z,66.94434
2023-05-09T00:05:55.845Z,67.27148
2023-05-09T00:07:55.899Z,67.11621
2023-05-09T00:09:55.810Z,67.22168
2023-05-09T00:11:55.841Z,67.21875
2023-05-09T00:13:55.919Z,66.87598
2023-05-09T00:15:55.801Z,67.16309
2023-05-09T00:17:55.953Z,67.01074
2023-05-09T00:19:55.777Z,66.96484
2023-05-09T00:21:33.294Z,67.07813
2023-05-09T00:23:33.136Z,67.04492
2023-05-09T00:25:33.321Z,66.90527
2023-05-09T00:27:33.147Z,66.95508
2023-05-09T00:29:33.417Z,67.45703
2023-05-09T00:31:33.282Z,66.96191
2023-05-09T00:33:33.212Z,67.45508
2023-05-09T00:36:30.517Z,67.70508
2023-05-09T00:38:30.512Z,67.58594
2023-05-09T00:40:30.517Z,67.76758
2023-05-09T00:42:30.586Z,67.73633
2023-05-09T00:44:30.687Z,67.30273
2023-05-09T00:46:30.851Z,67.18945
2023-05-09T00:48:30.653Z,67.00293
2023-05-09T00:51:24.347Z,67.37402
2023-05-09T00:53:24.460Z,67.43848
2023-05-09T00:55:24.091Z,67.11523
2023-05-09T00:57:24.167Z,67.00684
2023-05-09T00:59:24.090Z,68.02344
2023-05-09T01:01:24.289Z,67.93555
2023-05-09T01:03:24.512Z,67.79688
2023-05-09T01:05:24.298Z,67.9834
2023-05-09T01:07:00.249Z,68.06348
2023-05-09T01:09:00.458Z,68.70801
2023-05-09T01:11:00.375Z,68.47949
2023-05-09T01:13:00.662Z,68.3125
2023-05-09T01:15:00.460Z,68.73145
2023-05-09T01:17:00.394Z,69.04004
2023-05-09T01:19:00.686Z,68.50488
2023-05-09T01:21:56.152Z,68.33984
2023-05-09T01:23:55.963Z,67.86914
2023-05-09T01:25:55.936Z,68.34277
2023-05-09T01:27:56.250Z,68.36035
2023-05-09T01:29:56.308Z,67.74902
2023-05-09T01:31:56.347Z,67.9209
2023-05-09T01:33:55.690Z,68.4209
2023-05-09T01:37:08.165Z,69.33203
2023-05-09T01:39:08.221Z,69.10742
2023-05-09T01:41:07.830Z,69.16211
2023-05-09T01:43:07.824Z,69.56934
2023-05-09T01:45:07.890Z,68.96777
2023-05-09T01:47:07.831Z,68.74316
2023-05-09T01:49:07.814Z,68.96582
2023-05-09T01:52:52.038Z,68.92969
2023-05-09T01:54:52.183Z,70.22168
2023-05-09T01:56:51.916Z,69.99414
2023-05-09T01:58:51.824Z,69.79297
2023-05-09T02:00:52.107Z,70.39941
2023-05-09T02:02:52.154Z,70.36621
2023-05-09T02:04:52.028Z,70.42383
2023-05-09T02:07:35.183Z,70.01758
2023-05-09T02:09:36.732Z,70.37207
2023-05-09T02:11:35.167Z,70.1748
2023-05-09T02:13:35.194Z,70.51367
2023-05-09T02:15:35.189Z,70.31152
2023-05-09T02:17:35.196Z,70.38477
2023-05-09T02:19:35.226Z,70.52344
2023-05-09T02:23:08.277Z,70.66016
2023-05-09T02:25:08.758Z,70.90039
2023-05-09T02:27:08.254Z,71.08984
2023-05-09T02:29:08.600Z,70.97559
2023-05-09T02:31:08.492Z,70.64063
2023-05-09T02:33:08.411Z,70.16699
2023-05-09T02:35:08.236Z,70.37988
2023-05-09T02:38:01.526Z,70.04883
2023-05-09T02:40:01.515Z,70.13867
2023-05-09T02:42:01.753Z,70.70508
2023-05-09T02:44:01.729Z,70.77832
2023-05-09T02:46:01.711Z,70.47461
2023-05-09T02:48:01.632Z,70.41992
2023-05-09T02:50:01.509Z,70.28809
2023-05-09T02:53:26.418Z,70.86328
2023-05-09T02:55:26.421Z,71.42285
2023-05-09T02:57:26.645Z,71.3418
2023-05-09T02:59:26.510Z,71.88184
2023-05-09T03:01:26.516Z,71.17383
2023-05-09T03:03:26.730Z,70.93652
2023-05-09T03:05:26.512Z,70.55859
2023-05-09T03:07:56.139Z,70.18262
2023-05-09T03:09:56.214Z,70.48242
2023-05-09T03:11:56.256Z,70.76758
2023-05-09T03:13:56.709Z,70.68457
2023-05-09T03:15:56.498Z,70.77441
2023-05-09T03:17:56.319Z,70.19043
2023-05-09T03:19:56.373Z,70.53516
2023-05-09T03:23:05.971Z,70.29004
2023-05-09T03:25:05.774Z,70.38281
2023-05-09T03:27:05.746Z,70.21094
2023-05-09T03:29:06.070Z,70.03125
2023-05-09T03:31:05.877Z,70.05957
2023-05-09T03:33:05.968Z,70.10645
2023-05-09T03:35:05.864Z,69.7959
2023-05-09T03:38:05.832Z,69.29688
2023-05-09T03:40:05.960Z,68.56934
2023-05-09T03:42:05.882Z,65.5957
2023-05-09T03:44:05.875Z,62.69629
2023-05-09T03:46:06.057Z,59.22363
2023-05-09T03:48:05.910Z,55.77246
2023-05-09T03:50:05.887Z,54.30469
2023-05-09T03:52:05.924Z,53.83594
2023-05-09T03:54:14.333Z,52.67773
2023-05-09T03:56:14.387Z,50.00586
2023-05-09T03:58:14.233Z,48.08984
2023-05-09T04:00:14.242Z,45.42969
2023-05-09T04:02:14.731Z,44.1084
2023-05-09T04:04:14.352Z,42.41699
2023-05-09T04:06:14.351Z,41.83789
2023-05-09T04:08:45.948Z,39.72266
2023-05-09T04:10:45.914Z,40.46973
2023-05-09T04:12:46.128Z,42.41016
2023-05-09T04:14:49.210Z,43.37207
2023-05-09T04:16:45.994Z,44.25488
2023-05-09T04:18:46.108Z,45.4209
2023-05-09T04:20:45.921Z,47.90723
2023-05-09T04:23:42.965Z,50.52637
2023-05-09T04:25:43.141Z,51.54004
2023-05-09T04:27:42.962Z,51.37402
2023-05-09T04:29:42.981Z,49.39258
2023-05-09T04:31:43.622Z,49.04004
2023-05-09T04:33:42.843Z,45.73535
2023-05-09T04:35:43.163Z,41.45215
2023-05-09T04:37:42.976Z,38.67188
2023-05-09T04:39:13.276Z,37.45703
2023-05-09T04:41:12.887Z,33.32129
2023-05-09T04:43:12.950Z,33.17676
2023-05-09T04:45:13.680Z,33.32422
2023-05-09T04:47:12.795Z,29.33105
2023-05-09T04:49:12.868Z,29.87402
2023-05-09T04:51:13.017Z,29.62695
2023-05-09T04:54:35.814Z,29.28027
2023-05-09T04:56:36.017Z,30.07715
2023-05-09T04:58:35.855Z,29.91992
2023-05-09T05:00:35.831Z,32.39746
2023-05-09T05:02:35.913Z,35.59863
2023-05-09T05:04:35.940Z,37.36816
2023-05-09T05:06:36.052Z,38.64648
2023-05-09T05:09:38.579Z,41.50391
2023-05-09T05:11:45.061Z,40.46191
2023-05-09T05:13:38.568Z,41.47461
2023-05-09T05:15:38.641Z,42.44727
2023-05-09T05:17:38.609Z,44.27246
2023-05-09T05:19:38.550Z,45.38574
2023-05-09T05:21:38.597Z,44.14648
2023-05-09T05:24:55.888Z,43.58789
2023-05-09T05:26:56.085Z,43.05273
2023-05-09T05:28:55.845Z,43.04199
2023-05-09T05:30:55.891Z,41.60254
2023-05-09T05:32:56.076Z,42.90625
2023-05-09T05:34:55.799Z,43.4834
2023-05-09T05:36:55.975Z,42.99805
2023-05-09T05:40:16.869Z,44.35742
2023-05-09T05:42:16.838Z,45.10254
2023-05-09T05:44:16.738Z,45.57617
2023-05-09T05:46:16.768Z,45.54102
2023-05-09T05:48:16.790Z,45.9043
2023-05-09T05:50:16.681Z,46.19824
2023-05-09T05:52:16.889Z,46.21094
2023-05-09T05:55:15.941Z,45.16016
2023-05-09T05:57:15.384Z,45.75879
2023-05-09T05:59:15.425Z,42.69434
2023-05-09T06:01:15.415Z,44.44727
2023-05-09T06:03:15.699Z,43.25781
2023-05-09T06:05:15.724Z,42.38574
2023-05-09T06:07:15.347Z,42.90137
2023-05-09T06:10:13.405Z,41.40918
2023-05-09T06:12:13.038Z,42.8252
2023-05-09T06:14:13.153Z,42.45801
2023-05-09T06:16:20.703Z,42.89258
2023-05-09T06:18:13.166Z,43.84766
2023-05-09T06:20:13.076Z,43.80469
2023-05-09T06:22:12.896Z,44.38867
2023-05-09T06:25:22.019Z,42.9082
2023-05-09T06:27:21.922Z,42.52344
2023-05-09T06:29:22.254Z,43.33594
2023-05-09T06:31:25.467Z,41.8584
2023-05-09T06:33:21.978Z,43.47559
2023-05-09T06:35:22.234Z,42.22754
2023-05-09T06:37:21.936Z,41.91309
2023-05-09T06:41:04.216Z,42.39258
2023-05-09T06:43:04.042Z,44.60645
2023-05-09T06:45:04.243Z,44.98145
2023-05-09T06:47:04.047Z,43.69043
2023-05-09T06:49:04.037Z,46.15234
2023-05-09T06:51:04.309Z,45.09668
2023-05-09T06:53:04.097Z,44.0625
2023-05-09T06:55:20.169Z,42.83008
2023-05-09T06:57:22.797Z,45.66895
2023-05-09T06:59:19.950Z,47.41016
2023-05-09T07:01:20.493Z,45.19336
2023-05-09T07:03:20.148Z,47.3252
2023-05-09T07:05:20.098Z,46.74121
2023-05-09T07:07:20.150Z,46.51172
2023-05-09T07:09:20.049Z,45.43555
2023-05-09T07:11:23.365Z,44.82813
2023-05-09T07:13:23.737Z,44.49805
2023-05-09T07:15:41.007Z,45.25781
2023-05-09T07:17:24.664Z,46.98828
2023-05-09T07:19:23.380Z,43.3623
2023-05-09T07:21:23.513Z,43.375
2023-05-09T07:23:23.459Z,44.59668
2023-05-09T07:26:20.942Z,44.57129
2023-05-09T07:28:20.497Z,42.99805
2023-05-09T07:30:20.580Z,42.44531
2023-05-09T07:32:20.407Z,47.95508
2023-05-09T07:34:20.562Z,49.28906
2023-05-09T07:36:20.411Z,46.02441
2023-05-09T07:38:20.429Z,48.29492
2023-05-09T07:41:14.133Z,50.75195
2023-05-09T07:43:14.197Z,48.46387
2023-05-09T07:45:14.510Z,50.71484
2023-05-09T07:47:14.203Z,51.18848
2023-05-09T07:49:14.099Z,52.62305
2023-05-09T07:51:14.163Z,53.81641
2023-05-09T07:53:14.127Z,53.8457
2023-05-09T07:56:30.846Z,53.73145
2023-05-09T07:58:30.798Z,53.83594
2023-05-09T08:00:30.774Z,50.47754
2023-05-09T08:02:30.902Z,53.0332
2023-05-09T08:04:30.713Z,53.4248
2023-05-09T08:06:30.785Z,49.67969
2023-05-09T08:08:30.659Z,48.83984
2023-05-09T08:11:46.344Z,51.58008
2023-05-09T08:13:46.407Z,51.83008
2023-05-09T08:15:46.472Z,49.94238
2023-05-09T08:17:46.655Z,50.66895
2023-05-09T08:19:46.436Z,50.6084
2023-05-09T08:21:46.400Z,53.41309
2023-05-09T08:23:46.300Z,55.28418
2023-05-09T08:26:39.587Z,53.57129
2023-05-09T08:28:39.594Z,51.30469
2023-05-09T08:30:39.555Z,50.95117
2023-05-09T08:32:40.275Z,52.23926
2023-05-09T08:34:39.729Z,54.09277
2023-05-09T08:36:39.914Z,53.01953
2023-05-09T08:38:39.821Z,54.20996
2023-05-09T08:41:55.779Z,52.29395
2023-05-09T08:43:55.710Z,53.24707
2023-05-09T08:45:55.611Z,54.77539
2023-05-09T08:47:55.606Z,52.67969
2023-05-09T08:49:55.902Z,52.39355
2023-05-09T08:51:55.453Z,50.29004
2023-05-09T08:53:55.747Z,51.90332
2023-05-09T08:56:43.284Z,52.75977
2023-05-09T08:58:43.160Z,51.0957
2023-05-09T09:00:43.167Z,51.99023
2023-05-09T09:02:43.513Z,49.28223
2023-05-09T09:04:43.426Z,49.15234
2023-05-09T09:06:43.670Z,48.99219
2023-05-09T09:08:43.346Z,49.92871
2023-05-09T09:10:43.439Z,50.01855
2023-05-09T09:12:38.584Z,52.09277
2023-05-09T09:14:38.461Z,52.25488
2023-05-09T09:16:38.688Z,53.41309
2023-05-09T09:18:40.069Z,52.99316
2023-05-09T09:20:38.543Z,54.98145
2023-05-09T09:22:38.790Z,51.59277
2023-05-09T09:24:38.446Z,50.7041
2023-05-09T09:27:33.583Z,51.38086
2023-05-09T09:29:33.519Z,52.56152
2023-05-09T09:31:33.810Z,53.19238
2023-05-09T09:33:33.377Z,54.13672
2023-05-09T09:35:33.639Z,52.72168
2023-05-09T09:37:33.424Z,53.73438
2023-05-09T09:39:33.514Z,52.03613
2023-05-09T09:43:05.997Z,51.66016
2023-05-09T09:45:05.958Z,50.40137
2023-05-09T09:47:06.010Z,53.78418
2023-05-09T09:49:06.117Z,54.01758
2023-05-09T09:51:05.895Z,53.27344
2023-05-09T09:53:05.836Z,52.92773
2023-05-09T09:55:05.987Z,53.25488
2023-05-09T09:57:25.752Z,52.67188
2023-05-09T09:59:26.040Z,53.81152
2023-05-09T10:01:25.844Z,53.56738
2023-05-09T10:03:26.014Z,55.12012
2023-05-09T10:05:25.728Z,54.37109
2023-05-09T10:07:25.728Z,56.05762
2023-05-09T10:09:25.804Z,55.6709
2023-05-09T10:11:25.889Z,54.20801
2023-05-09T10:13:14.081Z,53.05078
2023-05-09T10:15:14.268Z,52.92773
2023-05-09T10:17:14.414Z,53.62598
2023-05-09T10:19:14.002Z,53.76367
2023-05-09T10:21:14.047Z,53.69922
2023-05-09T10:23:13.979Z,54.80371
2023-05-09T10:25:14.340Z,55.00977
2023-05-09T10:27:56.336Z,55.10254
2023-05-09T10:29:56.277Z,54.625
2023-05-09T10:31:56.548Z,55.78809
2023-05-09T10:33:56.271Z,54.57422
2023-05-09T10:35:56.344Z,55.20703
2023-05-09T10:37:56.418Z,54.95801
2023-05-09T10:39:56.608Z,55.24512
2023-05-09T10:42:55.631Z,54.45313
2023-05-09T10:44:55.573Z,55.80566
2023-05-09T10:46:55.391Z,55.71777
2023-05-09T10:48:55.397Z,55.58301
2023-05-09T10:50:55.228Z,56.01465
2023-05-09T10:52:55.129Z,57.1084
2023-05-09T10:54:55.084Z,58.0127
2023-05-09T10:56:55.179Z,57.46387
2023-05-09T10:58:12.994Z,57.24805
2023-05-09T11:00:13.104Z,57.05957
2023-05-09T11:02:13.043Z,55.95117
2023-05-09T11:04:13.353Z,58.61133
2023-05-09T11:06:12.974Z,58.39746
2023-05-09T11:08:13.056Z,57.58691
2023-05-09T11:10:13.124Z,58.24805
2023-05-09T11:12:13.133Z,57.43945
2023-05-09T11:13:41.113Z,57.65918
2023-05-09T11:15:41.187Z,58.55078
2023-05-09T11:17:41.120Z,58.32813
2023-05-09T11:19:41.301Z,57.99805
2023-05-09T11:21:41.241Z,57.30762
2023-05-09T11:23:41.095Z,56.81152
2023-05-09T11:25:41.056Z,56.66699
2023-05-09T11:28:29.656Z,58.23438
2023-05-09T11:30:29.670Z,57.60742
2023-05-09T11:32:29.753Z,56.98145
2023-05-09T11:34:29.606Z,59.22363
2023-05-09T11:36:29.732Z,57.76563
2023-05-09T11:38:29.474Z,58.22168
2023-05-09T11:40:29.608Z,58.40137
2023-05-09T11:42:29.603Z,58.8418
2023-05-09T11:44:00.716Z,57.83887
2023-05-09T11:46:00.745Z,58.17676
2023-05-09T11:48:01.127Z,58.0791
2023-05-09T11:50:00.736Z,58.44922
2023-05-09T11:52:00.781Z,58.15723
2023-05-09T11:54:00.663Z,58.00098
2023-05-09T11:56:00.648Z,57.53613
2023-05-09T11:59:44.710Z,58.38086
2023-05-09T12:01:44.705Z,57.64453
2023-05-09T12:03:45.634Z,57.8457
2023-05-09T12:05:44.723Z,57.79395
2023-05-09T12:07:44.818Z,57.17578
2023-05-09T12:09:44.658Z,58.15332
2023-05-09T12:11:44.706Z,57.15918
2023-05-09T12:14:25.204Z,59.47656
2023-05-09T12:16:25.291Z,58.5791
2023-05-09T12:18:25.243Z,57.56934
2023-05-09T12:20:25.776Z,56.30957
2023-05-09T12:22:25.276Z,59.38867
2023-05-09T12:24:25.306Z,59.34668
2023-05-09T12:26:25.553Z,57.71094
2023-05-09T12:29:35.094Z,57.60254
2023-05-09T12:31:35.180Z,57.47949
2023-05-09T12:33:35.062Z,57.53516
2023-05-09T12:35:35.234Z,57.36133
2023-05-09T12:37:34.996Z,54.6582
2023-05-09T12:39:35.190Z,55.99707
2023-05-09T12:41:53.847Z,57.02832
2023-05-09T12:45:15.333Z,57.42871
2023-05-09T12:47:14.910Z,56.36914
2023-05-09T12:49:14.715Z,59.41406
2023-05-09T12:51:14.843Z,57.70508
2023-05-09T12:53:14.763Z,57.75391
2023-05-09T12:55:15.467Z,58.58105
2023-05-09T12:57:14.685Z,58.14844
2023-05-09T13:00:22.400Z,55.52539
2023-05-09T13:02:22.522Z,55.58203
2023-05-09T13:04:22.403Z,53.89941
2023-05-09T13:06:22.508Z,58.98145
2023-05-09T13:08:22.556Z,57.54004
2023-05-09T13:10:22.719Z,58.36914
2023-05-09T13:12:22.546Z,57.33105
2023-05-09T13:14:45.038Z,55.24219
2023-05-09T13:16:45.167Z,56.57324
2023-05-09T13:18:45.086Z,57.65039
2023-05-09T13:20:45.101Z,57.20898
2023-05-09T13:22:45.180Z,57.16699
2023-05-09T13:24:44.982Z,57.01855
2023-05-09T13:26:45.188Z,56.04492
2023-05-09T13:28:45.038Z,57.5332
2023-05-09T13:30:22.747Z,56.83105
2023-05-09T13:32:22.733Z,55.54785
2023-05-09T13:34:22.600Z,58.70605
2023-05-09T13:36:22.550Z,57.40625
2023-05-09T13:38:22.821Z,58.29492
2023-05-09T13:40:22.593Z,60.82031
2023-05-09T13:42:22.634Z,58.28613
2023-05-09T13:45:33.425Z,60.96484
2023-05-09T13:47:33.455Z,61.53613
2023-05-09T13:49:33.340Z,61.13574
2023-05-09T13:51:33.352Z,59.65625
2023-05-09T13:53:33.891Z,58.00488
2023-05-09T13:55:33.354Z,63.67676
2023-05-09T13:57:34.141Z,62.19238
2023-05-09T14:00:53.107Z,60.39063
2023-05-09T14:02:53.046Z,62.21094
2023-05-09T14:04:53.060Z,62.61523
2023-05-09T14:06:53.219Z,63.83496
2023-05-09T14:08:53.063Z,64.29004
2023-05-09T14:10:52.981Z,61.81836
2023-05-09T14:12:53.122Z,61.29004
2023-05-09T14:16:09.007Z,63.88965
2023-05-09T14:18:09.367Z,62.39551
2023-05-09T14:20:09.139Z,61.92578
2023-05-09T14:22:09.117Z,60.35645
2023-05-09T14:24:09.131Z,60.37012
2023-05-09T14:26:09.089Z,61.16504
2023-05-09T14:28:09.167Z,62.94824
2023-05-09T14:30:55.016Z,64.9043
2023-05-09T14:32:55.301Z,62.92871
2023-05-09T14:34:55.199Z,62.06836
2023-05-09T14:36:55.206Z,62.07422
2023-05-09T14:38:55.029Z,63.51172
2023-05-09T14:40:55.213Z,65.04883
2023-05-09T14:42:55.098Z,65.42383
2023-05-09T14:46:15.624Z,65.36719
2023-05-09T14:48:16.370Z,65.09668
2023-05-09T14:50:15.955Z,64.32324
2023-05-09T14:52:15.461Z,64.85547
2023-05-09T14:54:15.362Z,64.30566
2023-05-09T14:56:15.510Z,66.63477
2023-05-09T14:58:15.432Z,66.04102
2023-05-09T15:01:28.251Z,63.25586
2023-05-09T15:03:28.022Z,65.42969
2023-05-09T15:05:28.223Z,64.51758
2023-05-09T15:07:28.013Z,64.91895
2023-05-09T15:09:28.036Z,66.71777
2023-05-09T15:11:39.862Z,65.88281
2023-05-09T15:13:28.360Z,66.98145
2023-05-09T15:16:15.100Z,65.28223
2023-05-09T15:18:15.312Z,67.23438
2023-05-09T15:20:15.773Z,66.2627
2023-05-09T15:22:15.074Z,66.96875
2023-05-09T15:24:15.095Z,68.95508
2023-05-09T15:26:15.078Z,69.47363
2023-05-09T15:28:15.192Z,71.50684
2023-05-09T15:32:04.466Z,68.35449
2023-05-09T15:34:04.822Z,70.03711
2023-05-09T15:36:04.483Z,69.25586
2023-05-09T15:38:04.397Z,67.89355
2023-05-09T15:40:04.854Z,68.3457
2023-05-09T15:42:04.541Z,67.03906
2023-05-09T15:44:04.590Z,67.28613
2023-05-09T15:47:29.577Z,68.03613
2023-05-09T15:49:29.389Z,68.18066
2023-05-09T15:51:29.448Z,67.21875
2023-05-09T15:53:29.372Z,67.27441
2023-05-09T15:55:29.495Z,65.76074
2023-05-09T15:57:29.396Z,65.76074
2023-05-09T15:59:29.311Z,67.01465
2023-05-09T16:02:32.755Z,67.48926
2023-05-09T16:04:32.438Z,67.8877
2023-05-09T16:06:34.777Z,67.85156
2023-05-09T16:08:32.492Z,67.0957
2023-05-09T16:10:32.488Z,67.38281
2023-05-09T16:12:32.334Z,67.74609
2023-05-09T16:14:32.806Z,67.07129
2023-05-09T16:17:31.628Z,66.75977
2023-05-09T16:19:35.062Z,66.60547
2023-05-09T16:21:31.793Z,67.74805
2023-05-09T16:23:31.639Z,67.65918
2023-05-09T16:25:35.385Z,68.84082
2023-05-09T16:27:31.892Z,68.07227
2023-05-09T16:29:31.607Z,67.96973
2023-05-09T16:32:53.161Z,68.22656
2023-05-09T16:34:53.076Z,68.60742
2023-05-09T16:36:53.335Z,68.53223
2023-05-09T16:38:53.220Z,68.75293
2023-05-09T16:40:53.052Z,68.80078
2023-05-09T16:42:53.187Z,68.7334
2023-05-09T16:44:53.068Z,68.21094
2023-05-09T16:47:35.642Z,68.23438
2023-05-09T16:49:35.642Z,68.46875
2023-05-09T16:51:35.619Z,69.04395
2023-05-09T16:53:35.901Z,68.16113
2023-05-09T16:55:35.585Z,69.07813
2023-05-09T16:57:35.568Z,68.34766
2023-05-09T16:59:35.612Z,68.1748
2023-05-09T17:02:53.735Z,68.47754
2023-05-09T17:04:54.006Z,67.9082
2023-05-09T17:06:53.685Z,68.68457
2023-05-09T17:08:53.716Z,69.17871
2023-05-09T17:10:53.690Z,68.37402
2023-05-09T17:12:53.614Z,68.31836
2023-05-09T17:14:53.757Z,68.76855
2023-05-09T17:18:38.538Z,68.48242
2023-05-09T17:20:30.091Z,68.57813
2023-05-09T17:22:29.986Z,68.35645
2023-05-09T17:24:30.198Z,69.12598
2023-05-09T17:26:30.120Z,69.03906
2023-05-09T17:28:30.243Z,69.16602
2023-05-09T17:30:30.041Z,70.51172
2023-05-09T17:33:15.046Z,70.2373
2023-05-09T17:35:15.051Z,70.14355
2023-05-09T17:37:15.100Z,70.46387
2023-05-09T17:39:14.938Z,70.69434
2023-05-09T17:41:15.056Z,71.17383
2023-05-09T17:43:15.290Z,70.64453
2023-05-09T17:45:14.906Z,71.0332
2023-05-09T17:48:42.485Z,71.47461
2023-05-09T17:50:42.508Z,70.52148
2023-05-09T17:52:42.677Z,70.04395
2023-05-09T17:54:42.589Z,70.55176
2023-05-09T17:56:42.784Z,70.44531
2023-05-09T17:58:42.566Z,70.25977
2023-05-09T18:00:42.829Z,70.66895
2023-05-09T18:03:37.321Z,70.14941
2023-05-09T18:05:37.196Z,70.44238
2023-05-09T18:07:37.198Z,69.77441
2023-05-09T18:09:37.363Z,71.62988
2023-05-09T18:11:37.153Z,72.08594
2023-05-09T18:13:37.411Z,72.08203
2023-05-09T18:15:37.256Z,71.16113
2023-05-09T18:19:11.155Z,71.60254
2023-05-09T18:21:11.349Z,71.17578
2023-05-09T18:23:11.216Z,71.12402
2023-05-09T18:25:11.349Z,71.27539
2023-05-09T18:27:11.716Z,71.22266
2023-05-09T18:29:11.508Z,71.36621
2023-05-09T18:31:11.823Z,71.20313
2023-05-09T18:33:30.194Z,71.3252
2023-05-09T18:35:30.261Z,70.93555
2023-05-09T18:37:30.332Z,70.75098
2023-05-09T18:39:30.371Z,71.09961
2023-05-09T18:41:30.365Z,71.56543
2023-05-09T18:43:30.449Z,71.75488
2023-05-09T18:45:30.422Z,72.0293
2023-05-09T18:47:30.252Z,71.96973
2023-05-09T18:48:43.353Z,71.83105
2023-05-09T18:50:43.165Z,72.0332
2023-05-09T18:52:43.074Z,71.95508
2023-05-09T18:54:43.085Z,71.67676
2023-05-09T18:56:43.257Z,71.80859
2023-05-09T18:58:43.236Z,72.16992
2023-05-09T19:00:43.524Z,72.05957
2023-05-09T19:02:43.133Z,71.46094
2023-05-09T19:04:13.346Z,71.74805
2023-05-09T19:06:13.339Z,71.70215
2023-05-09T19:08:13.200Z,71.5332
2023-05-09T19:10:13.735Z,71.875
2023-05-09T19:12:13.351Z,72.0791
2023-05-09T19:14:13.394Z,72.37402
2023-05-09T19:16:13.836Z,72.20898
2023-05-09T19:19:13.032Z,72.37598
2023-05-09T19:21:12.971Z,72.14258
2023-05-09T19:23:13.135Z,73.26367
2023-05-09T19:25:12.998Z,72.45703
2023-05-09T19:27:12.922Z,73.28516
2023-05-09T19:29:12.987Z,75.09082
2023-05-09T19:31:13.184Z,74.51367
2023-05-09T19:34:39.840Z,74.85938
2023-05-09T19:36:39.900Z,74.71582
2023-05-09T19:38:39.674Z,74.70898
2023-05-09T19:40:39.628Z,73.17676
2023-05-09T19:42:39.670Z,72.78809
2023-05-09T19:44:39.899Z,73.55566
2023-05-09T19:46:39.719Z,72.75879
2023-05-09T19:49:38.963Z,73.45996
2023-05-09T19:51:38.948Z,73.88281
2023-05-09T19:53:38.844Z,74.10645
2023-05-09T19:55:38.916Z,75.03516
2023-05-09T19:57:38.880Z,75.47266
2023-05-09T19:59:38.958Z,74.82324
2023-05-09T20:01:39.279Z,76.50684
2023-05-09T20:05:04.256Z,75.83496
2023-05-09T20:07:04.343Z,75.77832
2023-05-09T20:09:04.298Z,75.49023
2023-05-09T20:11:04.525Z,75.12109
2023-05-09T20:13:04.448Z,75.28906
2023-05-09T20:15:04.240Z,74.80664
2023-05-09T20:17:04.328Z,74.53906
2023-05-09T20:20:32.853Z,73.87012
2023-05-09T20:22:33.051Z,74.13574
2023-05-09T20:24:32.884Z,73.77344
2023-05-09T20:26:32.894Z,74.00488
2023-05-09T20:28:32.935Z,74.28613
2023-05-09T20:30:32.885Z,74.00781
2023-05-09T20:32:33.000Z,73.34375
2023-05-09T20:35:23.694Z,74.66895
2023-05-09T20:37:23.724Z,73.92969
2023-05-09T20:39:23.783Z,74.30273
2023-05-09T20:41:23.678Z,74.1123
2023-05-09T20:43:23.730Z,73.81543
2023-05-09T20:45:23.951Z,73.45703
2023-05-09T20:47:23.869Z,73.54297
2023-05-09T20:50:35.063Z,74.33398
2023-05-09T20:52:34.971Z,74.24414
2023-05-09T20:54:35.041Z,73.87891
2023-05-09T20:56:35.043Z,73.75391
2023-05-09T20:58:35.122Z,73.25879
2023-05-09T21:00:35.346Z,73.52734
2023-05-09T21:02:35.248Z,73.16699
2023-05-09T21:05:51.973Z,73.55762
2023-05-09T21:07:51.996Z,74.89844
2023-05-09T21:09:51.957Z,74.2041
2023-05-09T21:11:51.961Z,74.18555
2023-05-09T21:13:51.954Z,74.03809
2023-05-09T21:15:52.054Z,73.63281
2023-05-09T21:17:52.049Z,73.60645
2023-05-09T21:20:23.749Z,73.66602
2023-05-09T21:22:23.729Z,74.06641
2023-05-09T21:24:23.712Z,73.47266
2023-05-09T21:26:23.793Z,73.95508
2023-05-09T21:28:26.124Z,74.08984
2023-05-09T21:30:23.919Z,73.88379
2023-05-09T21:32:23.909Z,73.67773
2023-05-09T21:34:23.898Z,72.94238
2023-05-09T21:36:02.717Z,74.37207
2023-05-09T21:38:02.764Z,73.36816
2023-05-09T21:40:12.545Z,73.61133
2023-05-09T21:42:02.551Z,73.83691
2023-05-09T21:44:02.708Z,73.57813
2023-05-09T21:46:02.634Z,73.87793
2023-05-09T21:48:02.765Z,73.90527
2023-05-09T21:51:11.851Z,73.50781
2023-05-09T21:53:11.583Z,73.30273
2023-05-09T21:55:11.558Z,73.70703
2023-05-09T21:57:11.607Z,73.4834
2023-05-09T21:59:11.720Z,73.50391
2023-05-09T22:01:11.713Z,73.38672
2023-05-09T22:03:12.085Z,73.34473
2023-05-09T22:06:14.861Z,73.31348
2023-05-09T22:08:14.717Z,73.46387
2023-05-09T22:10:15.297Z,73.1875
2023-05-09T22:12:14.707Z,73.90137
2023-05-09T22:14:14.691Z,73.96191
2023-05-09T22:16:14.742Z,73.77051
2023-05-09T22:18:14.713Z,73.1875
2023-05-09T22:21:49.432Z,74.5127
2023-05-09T22:23:49.422Z,73.66797
2023-05-09T22:25:49.431Z,73.37598
2023-05-09T22:27:49.405Z,73.31934
2023-05-09T22:29:49.405Z,73.55957
2023-05-09T22:31:49.492Z,73.68945
2023-05-09T22:33:49.352Z,74.00684
2023-05-09T22:36:12.114Z,73.37891
2023-05-09T22:38:12.375Z,74.05078
2023-05-09T22:40:12.134Z,73.65918
2023-05-09T22:42:12.085Z,73.43164
2023-05-09T22:44:12.182Z,73.4541
2023-05-09T22:46:12.170Z,73.72656
2023-05-09T22:48:12.302Z,73.75781
2023-05-09T22:50:12.303Z,73.3877
2023-05-09T22:52:03.883Z,73.74609
2023-05-09T22:54:03.940Z,73.70215
2023-05-09T22:56:03.752Z,73.30469
2023-05-09T22:58:03.898Z,73.33594
2023-05-09T23:00:03.918Z,73.7793
2023-05-09T23:02:04.115Z,73.61621
2023-05-09T23:04:03.954Z,73.54395
2023-05-09T23:06:43.749Z,73.49316
2023-05-09T23:08:43.769Z,73.87012
2023-05-09T23:10:43.848Z,73.83008
2023-05-09T23:12:44.081Z,73.99414
2023-05-09T23:14:43.739Z,74.04297
2023-05-09T23:16:44.135Z,74.09277
2023-05-09T23:18:43.770Z,73.6748
2023-05-09T23:22:22.899Z,73.49121
2023-05-09T23:24:22.753Z,73.51367
2023-05-09T23:26:22.728Z,73.81348
2023-05-09T23:28:22.817Z,73.98633
2023-05-09T23:30:22.931Z,73.78223
2023-05-09T23:32:22.974Z,74.00098
2023-05-09T23:34:22.767Z,74.25977
2023-05-09T23:37:17.427Z,73.87793
2023-05-09T23:39:17.587Z,73.72852
2023-05-09T23:41:17.496Z,73.58398
2023-05-09T23:43:17.549Z,73.5752
2023-05-09T23:45:17.585Z,73.29395
2023-05-09T23:47:17.522Z,73.27051
2023-05-09T23:49:17.462Z,73.60156
2023-05-09T23:52:03.376Z,73.77832
2023-05-09T23:54:03.290Z,73.96973
2023-05-09T23:56:03.292Z,75.27832
2023-05-09T23:58:03.279Z,75.13672
